Latest Weather Observations for Emerald

IDQ60801

Issued at 12:35 pm EST Tuesday 21 October 2014 (issued every 30 minutes, with the page automatically refreshed every 10 minutes)

About weather observations | Map of weather stations | Latest weather observations for QLD | Other Formats
Station Details ID: 035264 Name: EMERALD AIRPORT Lat: -23.57 Lon: 148.18 Height: 189.4 m
Data from the previous 72 hours. | See also: Recent months at Emerald
Date/Time
EST
Temp
°C
App
Temp
°C
Dew
Point
Rel
Hum
%
Delta-T
°C
Wind Press
QNH
hPa
Press
MSL
hPa
Rain
since 9 am
mm
Dir
 
Spd
km/h
Gust
km/h
Spd
kts
Gust
kts
21/12:30pm 28.1 23.9 8.4 29 10.8 ESE 20 35 11 19 1022.6 - 0.0
21/12:00pm 27.3 22.5 8.7 31 10.2 E 24 32 13 17 1023.2 1022.3 0.0
21/11:30am 26.6 22.9 9.5 34 9.5 E 19 30 10 16 1023.8 - 0.0
21/11:00am 26.1 21.6 8.6 33 9.6 E 22 32 12 17 1024.2 - 0.0
21/10:30am 26.2 21.8 10.4 37 8.9 E 24 35 13 19 1024.6 - 0.0
21/10:00am 25.4 21.4 11.9 43 7.8 ESE 24 33 13 18 1025.0 - 0.0
21/09:30am 24.0 20.1 10.7 43 7.4 E 22 39 12 21 1025.2 - 0.0
21/09:00am 22.5 19.5 12.4 52 5.8 E 20 32 11 17 1025.3 1024.4 0.0
21/08:30am 22.5 19.4 12.2 52 5.9 ESE 20 32 11 17 1025.4 - 0.0
21/08:00am 21.2 18.0 11.8 55 5.3 SE 20 30 11 16 1025.3 - 0.0
21/07:30am 20.5 17.5 12.5 60 4.5 SE 20 28 11 15 1025.1 - 0.0
21/07:00am 19.2 17.0 12.0 63 4.0 SSE 15 20 8 11 1024.7 - 0.0
21/06:30am 17.6 16.2 12.1 70 3.1 SSE 11 13 6 7 1024.4 - 0.0
21/06:00am 16.4 14.2 12.2 76 2.3 SE 15 17 8 9 1023.9 1023.0 0.0
21/05:30am 16.2 14.8 12.2 77 2.2 SE 11 15 6 8 1023.6 - 0.0
21/05:00am 15.6 14.1 12.0 79 2.0 SE 11 13 6 7 1023.2 - 0.0
21/04:30am 15.6 14.0 11.4 76 2.3 SE 11 11 6 6 1023.1 - 0.0
21/04:00am 16.0 14.3 11.2 73 2.6 ESE 11 13 6 7 1022.9 - 0.0
21/03:30am 16.6 14.5 11.3 71 2.9 SE 13 15 7 8 1022.9 - 0.0
21/03:00am 16.3 14.0 10.6 69 3.0 ESE 13 15 7 8 1022.7 1021.8 0.0
21/02:30am 16.6 14.9 10.0 65 3.5 SE 9 11 5 6 1022.5 - 0.0
21/02:00am 17.5 15.7 9.4 59 4.3 ENE 9 13 5 7 1022.4 - 0.0
21/01:30am 18.6 15.6 9.1 54 5.0 NE 15 20 8 11 1022.3 - 0.0
21/01:00am 19.0 15.9 8.9 52 5.3 NE 15 24 8 13 1022.3 - 0.0
21/12:30am 19.2 17.4 12.2 64 3.9 NE 13 17 7 9 1022.5 - 0.0
21/12:00am 19.8 18.1 13.5 67 3.6 NNE 15 20 8 11 1022.6 1021.7 0.0
 
Date/Time
EST
Temp
°C
App
Temp
°C
Dew
Point
Rel
Hum
%
Delta-T
°C
Wind Press
QNH
hPa
Press
MSL
hPa
Rain
since 9 am
mm
Dir
 
Spd
km/h
Gust
km/h
Spd
kts
Gust
kts
20/11:30pm 20.6 17.8 13.3 63 4.2 NE 20 26 11 14 1022.6 - 0.0
20/11:00pm 21.2 18.3 12.9 59 4.8 NE 20 28 11 15 1022.7 - 0.0
20/10:30pm 21.8 18.1 12.6 56 5.3 NE 24 32 13 17 1022.6 - 0.0
20/10:00pm 21.5 18.6 8.1 42 7.1 NE 13 19 7 10 1022.4 - 0.0
20/09:30pm 22.1 18.0 6.3 36 8.1 ENE 17 20 9 11 1021.9 - 0.0
20/09:00pm 22.1 18.7 7.5 39 7.6 ENE 15 19 8 10 1021.5 1020.6 0.0
20/08:30pm 22.4 20.3 6.6 36 8.1 E 7 9 4 5 1020.9 - 0.0
20/08:00pm 22.8 20.9 7.4 37 8.1 E 7 7 4 4 1020.5 - 0.0
20/07:30pm 23.3 20.7 7.8 37 8.2 ENE 11 13 6 7 1020.2 - 0.0
20/07:00pm 24.4 21.3 7.1 33 9.1 ENE 13 17 7 9 1019.9 - 0.0
20/06:30pm 26.3 22.9 5.8 27 10.7 ENE 13 17 7 9 1019.6 - 0.0
20/06:00pm 27.9 24.2 6.1 25 11.5 E 15 24 8 13 1019.1 1018.2 0.0
20/05:30pm 29.6 24.9 5.0 21 12.9 E 19 30 10 16 1018.7 - 0.0
20/05:00pm 30.3 24.8 4.1 19 13.6 ESE 22 30 12 16 1018.4 - 0.0
20/04:30pm 30.8 25.6 5.3 20 13.5 ESE 22 35 12 19 1018.2 - 0.0
20/04:07pm 31.4 25.0 5.0 19 14.0 SSE 28 50 15 27 1017.9 - 0.0
20/04:00pm 31.2 26.3 7.0 22 13.2 E 22 33 12 18 1018.1 - 0.0
20/03:30pm 31.3 25.6 4.9 19 13.9 ESE 24 33 13 18 1018.2 - 0.0
20/03:00pm 30.8 26.9 5.3 20 13.5 ESE 15 26 8 14 1018.4 1017.5 0.0
20/02:30pm 30.6 26.2 6.5 22 13.0 ENE 19 32 10 17 1018.8 - 0.0
20/02:00pm 30.1 25.7 6.7 23 12.6 E 19 26 10 14 1019.3 - 0.0
20/01:30pm 30.7 25.4 6.6 22 13.0 ENE 24 32 13 17 1019.8 - 0.0
20/01:00pm 29.7 24.7 6.4 23 12.5 SE 22 33 12 18 1020.6 - 0.0
20/12:30pm 29.5 25.4 8.0 26 11.8 ESE 19 30 10 16 1021.2 - 0.0
20/12:00pm 27.9 22.7 7.2 27 11.1 E 24 33 13 18 1022.0 1021.1 0.0
20/11:30am 27.5 23.2 7.9 29 10.7 E 20 30 11 16 1022.6 - 0.0
20/11:00am 26.7 22.8 8.6 32 9.9 ESE 19 30 10 16 1023.3 - 0.0
20/10:30am 26.6 24.2 9.9 35 9.3 SE 13 30 7 16 1023.8 - 0.0
20/10:00am 25.0 21.5 10.1 39 8.3 ESE 19 24 10 13 1024.2 - 0.0
20/09:30am 23.7 21.0 11.7 47 6.8 ESE 17 26 9 14 1024.6 - 0.0
20/09:00am 23.2 20.7 12.2 50 6.3 E 17 24 9 13 1024.9 1023.9 0.0
20/08:30am 22.3 19.9 12.8 55 5.5 ESE 17 22 9 12 1024.9 - 0.0
20/08:00am 21.3 18.4 12.4 57 5.1 E 19 22 10 12 1025.0 - 0.0
20/07:30am 20.9 17.9 12.6 59 4.7 E 20 26 11 14 1024.9 - 0.0
20/07:00am 18.8 17.0 13.2 70 3.2 E 15 20 8 11 1024.7 - 0.0
20/06:30am 17.1 17.3 13.2 78 2.2 SE 4 9 2 5 1024.5 - 0.0
20/06:00am 15.3 15.2 12.2 82 1.7 SW 4 6 2 3 1024.4 1023.5 0.0
20/05:30am 15.1 14.6 12.2 83 1.6 SSW 6 7 3 4 1024.2 - 0.0
20/05:00am 15.2 14.5 12.1 82 1.7 SSW 7 9 4 5 1024.3 - 0.0
20/04:30am 15.3 14.6 12.1 81 1.8 S 7 9 4 5 1024.0 - 0.0
20/04:00am 15.4 14.4 12.2 81 1.8 S 9 9 5 5 1023.8 - 0.0
20/03:30am 15.3 14.6 11.9 80 1.9 SSE 7 9 4 5 1023.6 - 0.0
20/03:00am 15.6 14.5 12.0 79 2.0 S 9 13 5 7 1023.4 1022.5 0.0
20/02:30am 15.8 15.0 11.6 76 2.3 S 7 11 4 6 1023.1 - 0.0
20/02:00am 16.1 15.1 11.1 72 2.7 S 7 11 4 6 1023.3 - 0.0
20/01:30am 17.9 18.5 11.9 68 3.3 CALM 0 0 0 0 1023.1 - 0.0
20/01:00am 18.2 17.1 12.0 67 3.4 NNE 9 13 5 7 1023.2 - 0.0
20/12:30am 18.7 16.8 11.8 64 3.8 NE 13 17 7 9 1023.4 - 0.0
20/12:00am 19.1 16.8 11.7 62 4.1 NE 15 26 8 14 1023.4 1022.5 0.0
 
Date/Time
EST
Temp
°C
App
Temp
°C
Dew
Point
Rel
Hum
%
Delta-T
°C
Wind Press
QNH
hPa
Press
MSL
hPa
Rain
since 9 am
mm
Dir
 
Spd
km/h
Gust
km/h
Spd
kts
Gust
kts
19/11:30pm 19.6 16.9 11.6 60 4.5 NE 17 22 9 12 1023.6 - 0.0
19/11:00pm 20.5 17.4 11.7 57 4.9 NE 19 28 10 15 1023.8 - 0.0
19/10:30pm 21.1 17.8 11.7 55 5.3 NE 20 26 11 14 1023.7 - 0.0
19/10:00pm 21.7 18.3 11.4 52 5.8 NE 20 28 11 15 1023.6 - 0.0
19/09:30pm 22.4 18.4 10.5 47 6.6 NE 22 33 12 18 1023.3 - 0.0
19/09:00pm 22.5 19.8 10.3 46 6.7 ENE 15 22 8 12 1022.9 1022.0 0.0
19/08:30pm 21.8 19.8 10.0 47 6.5 ENE 11 15 6 8 1022.3 - 0.0
19/08:00pm 21.3 19.3 10.2 49 6.1 E 11 13 6 7 1021.9 - 0.0
19/07:30pm 22.0 19.9 9.9 46 6.6 E 11 13 6 7 1021.5 - 0.0
19/07:00pm 23.7 21.9 9.3 40 7.9 E 9 17 5 9 1021.2 - 0.0
19/06:30pm 24.2 21.9 9.0 38 8.3 E 11 13 6 7 1020.9 - 0.0
19/06:00pm 26.7 24.7 8.6 32 9.9 E 9 13 5 7 1020.6 1019.7 0.0
19/05:30pm 27.8 23.9 8.6 30 10.6 E 19 28 10 15 1020.4 - 0.0
19/05:00pm 28.6 25.1 8.8 29 11.0 E 17 22 9 12 1020.2 - 0.0
19/04:30pm 28.5 24.5 9.2 30 10.8 ENE 20 30 11 16 1020.1 - 0.0
19/04:00pm 28.3 23.9 9.1 30 10.7 E 22 35 12 19 1020.1 - 0.0
19/03:30pm 28.7 24.7 8.9 29 11.0 ENE 20 28 11 15 1020.0 - 0.0
19/03:00pm 29.4 24.9 10.0 30 11.0 E 24 33 13 18 1020.3 1019.3 0.0
19/02:30pm 29.2 25.0 9.8 30 11.0 ENE 22 33 12 18 1020.6 - 0.0
19/02:00pm 28.7 25.2 8.9 29 11.0 E 17 35 9 19 1021.0 - 0.0
19/01:30pm 29.1 24.9 9.8 30 10.9 E 22 37 12 20 1021.4 - 0.0
19/01:00pm 28.5 24.3 9.7 31 10.6 E 22 37 12 20 1021.8 - 0.0
19/12:30pm 28.2 21.9 9.0 30 10.7 E 32 41 17 22 1022.4 - 0.0
19/12:00pm 27.4 21.6 9.3 32 10.0 E 30 41 16 22 1023.0 1022.1 0.0
19/11:30am 26.1 21.1 9.4 35 9.2 E 26 33 14 18 1023.5 - 0.0
19/11:00am 26.6 22.2 10.3 36 9.2 E 24 35 13 19 1023.9 - 0.0
19/10:30am 25.6 19.6 10.2 38 8.6 E 32 41 17 22 1024.4 - 0.0
19/10:00am 25.0 21.5 10.8 41 8.0 E 20 35 11 19 1025.0 - 0.0
19/09:30am 24.6 20.5 11.5 44 7.5 E 24 30 13 16 1025.2 - 0.0
19/09:00am 23.0 18.8 11.1 47 6.6 E 24 30 13 16 1025.5 1024.6 0.0
19/08:30am 22.9 19.5 12.5 52 6.0 E 22 37 12 20 1025.7 - 0.0
19/08:00am 21.8 18.1 12.6 56 5.3 E 24 35 13 19 1025.7 - 0.0
19/07:30am 21.2 17.6 13.1 60 4.7 E 24 32 13 17 1025.6 - 0.0
19/07:00am 20.0 18.4 13.9 68 3.5 E 15 20 8 11 1025.3 - 0.0
19/06:30am 18.5 18.1 14.2 76 2.5 ESE 9 13 5 7 1024.9 - 0.0
19/06:00am 16.3 16.2 13.8 85 1.4 SSE 7 9 4 5 1024.6 1023.7 0.0
19/05:30am 15.6 14.9 13.3 86 1.3 SE 9 11 5 6 1024.1 - 0.0
19/05:00am 15.8 15.0 12.9 83 1.6 ESE 9 11 5 6 1023.9 - 0.0
19/04:30am 16.1 15.4 13.2 83 1.6 ESE 9 11 5 6 1023.6 - 0.0
19/04:00am 16.3 15.7 13.4 83 1.6 SE 9 11 5 6 1023.5 - 0.0
19/03:30am 16.4 15.6 12.9 80 2.0 SE 9 11 5 6 1023.4 - 0.0
19/03:00am 16.9 16.3 12.2 74 2.6 SE 7 9 4 5 1023.4 1022.5 0.0
19/02:30am 16.5 15.1 10.8 69 3.1 SSE 9 9 5 5 1023.2 - 0.0
19/02:00am 17.0 15.7 9.9 63 3.8 E 7 11 4 6 1023.1 - 0.0
19/01:30am 18.1 16.1 10.0 59 4.3 NNE 11 13 6 7 1022.8 - 0.0
19/01:00am 18.6 16.5 9.7 56 4.8 NNE 11 15 6 8 1022.9 - 0.0
19/12:30am 19.1 16.5 9.3 53 5.2 NE 13 19 7 10 1023.1 - 0.0
19/12:00am 19.6 16.2 9.2 51 5.5 NE 17 22 9 12 1023.2 1022.3 0.0
 
Date/Time
EST
Temp
°C
App
Temp
°C
Dew
Point
Rel
Hum
%
Delta-T
°C
Wind Press
QNH
hPa
Press
MSL
hPa
Rain
since 9 am
mm
Dir
 
Spd
km/h
Gust
km/h
Spd
kts
Gust
kts
18/11:30pm 20.1 16.5 8.4 47 6.2 NE 17 26 9 14 1023.3 - 0.0
18/11:00pm 20.6 16.3 6.9 41 7.0 NE 19 24 10 13 1023.3 - 0.0
18/10:30pm 20.9 16.8 6.4 39 7.4 NE 17 22 9 12 1023.2 - 0.0
18/10:00pm 21.5 17.3 5.8 36 7.9 NE 17 22 9 12 1023.0 - 0.0
18/09:30pm 22.0 18.0 6.7 37 7.9 ENE 17 24 9 13 1022.8 - 0.0
18/09:00pm 22.8 18.7 7.8 38 7.9 ENE 19 24 10 13 1022.6 1021.7 0.0
18/08:30pm 22.9 19.2 9.3 42 7.4 ENE 19 24 10 13 1022.2 - 0.0
18/08:00pm 22.6 18.5 8.0 39 7.7 E 19 24 10 13 1021.8 - 0.0
18/07:30pm 21.9 18.9 7.7 40 7.4 E 13 15 7 8 1021.3 - 0.0
18/07:00pm 23.3 20.4 8.2 38 8.1 E 13 17 7 9 1020.9 - 0.0
18/06:30pm 25.0 22.0 7.6 33 9.3 E 13 15 7 8 1020.2 - 0.0
18/06:00pm 27.2 24.1 7.1 28 10.7 ENE 13 17 7 9 1019.8 1018.8 0.0
18/05:30pm 28.4 24.1 7.1 26 11.5 NE 19 24 10 13 1019.1 - 0.0
18/05:00pm 29.1 25.8 6.5 24 12.1 E 13 19 7 10 1018.6 - 0.0
18/04:30pm 29.4 24.7 6.1 23 12.4 E 20 26 11 14 1018.5 - 0.0
18/04:00pm 29.6 26.3 6.3 23 12.5 ENE 13 22 7 12 1018.6 - 0.0
18/03:30pm 29.2 24.9 7.2 25 11.9 E 19 24 10 13 1018.8 - 0.0
18/03:00pm 29.7 25.3 6.4 23 12.5 ESE 19 28 10 15 1018.9 1018.0 0.0
18/02:30pm 28.8 24.7 6.2 24 12.0 E 17 30 9 16 1019.3 - 0.0
18/02:00pm 29.6 25.1 6.9 24 12.3 ENE 20 26 11 14 1019.7 - 0.0
18/01:30pm 29.3 24.7 6.7 24 12.2 E 20 30 11 16 1020.2 - 0.0
18/01:00pm 28.7 23.6 6.1 24 12.0 ENE 22 33 12 18 1020.6 - 0.0

Other Formats:

Comma delimited format used in spreadsheet applications
http://www.bom.gov.au/fwo/IDQ60801/IDQ60801.94363.axf

JavaScript Object Notation format (JSON) in row-major order
http://www.bom.gov.au/fwo/IDQ60801/IDQ60801.94363.json